sensor_id;sensor_type;location;lat;lon;timestamp;temperature;humidity
44695;DHT22;32845;59.422;17.930;2024-02-28T00:03:37;2.70;99.90
44695;DHT22;32845;59.422;17.930;2024-02-28T00:08:08;2.70;99.90
44695;DHT22;32845;59.422;17.930;2024-02-28T00:12:38;2.70;99.90
44695;DHT22;32845;59.422;17.930;2024-02-28T00:17:09;2.60;99.90
44695;DHT22;32845;59.422;17.930;2024-02-28T00:21:40;2.70;99.90
44695;DHT22;32845;59.422;17.930;2024-02-28T00:26:12;2.60;99.90
44695;DHT22;32845;59.422;17.930;2024-02-28T00:30:42;2.60;99.90
44695;DHT22;32845;59.422;17.930;2024-02-28T00:35:18;2.60;99.90
44695;DHT22;32845;59.422;17.930;2024-02-28T00:39:49;2.60;99.90
44695;DHT22;32845;59.422;17.930;2024-02-28T00:44:20;2.60;99.90
44695;DHT22;32845;59.422;17.930;2024-02-28T00:48:50;2.60;99.90
44695;DHT22;32845;59.422;17.930;2024-02-28T00:53:21;2.60;99.90
44695;DHT22;32845;59.422;17.930;2024-02-28T00:57:52;2.50;99.90
44695;DHT22;32845;59.422;17.930;2024-02-28T01:02:22;2.50;99.90
44695;DHT22;32845;59.422;17.930;2024-02-28T01:06:53;2.50;99.90
44695;DHT22;32845;59.422;17.930;2024-02-28T01:11:24;2.60;99.90
44695;DHT22;32845;59.422;17.930;2024-02-28T01:16:00;2.60;99.90
44695;DHT22;32845;59.422;17.930;2024-02-28T01:20:31;2.60;99.90
44695;DHT22;32845;59.422;17.930;2024-02-28T01:25:05;2.50;99.90
44695;DHT22;32845;59.422;17.930;2024-02-28T01:29:36;2.60;99.90
44695;DHT22;32845;59.422;17.930;2024-02-28T01:34:06;2.50;99.90
44695;DHT22;32845;59.422;17.930;2024-02-28T01:38:37;2.50;99.90
44695;DHT22;32845;59.422;17.930;2024-02-28T01:43:08;2.50;99.90
44695;DHT22;32845;59.422;17.930;2024-02-28T01:47:38;2.50;99.90
44695;DHT22;32845;59.422;17.930;2024-02-28T01:52:10;2.50;99.90
44695;DHT22;32845;59.422;17.930;2024-02-28T01:56:41;2.50;99.90
44695;DHT22;32845;59.422;17.930;2024-02-28T02:01:14;2.50;99.90
44695;DHT22;32845;59.422;17.930;2024-02-28T02:05:45;2.50;99.90
44695;DHT22;32845;59.422;17.930;2024-02-28T02:10:15;2.50;99.90
44695;DHT22;32845;59.422;17.930;2024-02-28T02:14:49;2.50;99.90
44695;DHT22;32845;59.422;17.930;2024-02-28T02:19:20;2.50;99.90
44695;DHT22;32845;59.422;17.930;2024-02-28T02:23:51;2.40;99.90
44695;DHT22;32845;59.422;17.930;2024-02-28T02:28:21;2.40;99.90
44695;DHT22;32845;59.422;17.930;2024-02-28T02:32:52;2.40;99.90
44695;DHT22;32845;59.422;17.930;2024-02-28T02:37:23;2.40;99.90
44695;DHT22;32845;59.422;17.930;2024-02-28T02:41:53;2.40;99.90
44695;DHT22;32845;59.422;17.930;2024-02-28T02:46:24;2.40;99.90
44695;DHT22;32845;59.422;17.930;2024-02-28T02:50:55;2.40;99.90
44695;DHT22;32845;59.422;17.930;2024-02-28T02:55:25;2.40;99.90
44695;DHT22;32845;59.422;17.930;2024-02-28T02:59:56;2.40;99.90
44695;DHT22;32845;59.422;17.930;2024-02-28T03:04:27;2.40;99.90
44695;DHT22;32845;59.422;17.930;2024-02-28T03:08:58;2.40;99.90
44695;DHT22;32845;59.422;17.930;2024-02-28T03:13:28;2.40;99.90
44695;DHT22;32845;59.422;17.930;2024-02-28T03:17:59;2.40;99.90
44695;DHT22;32845;59.422;17.930;2024-02-28T03:22:30;2.30;99.90
44695;DHT22;32845;59.422;17.930;2024-02-28T03:27:03;2.30;99.90
44695;DHT22;32845;59.422;17.930;2024-02-28T03:31:34;2.30;99.90
44695;DHT22;32845;59.422;17.930;2024-02-28T03:36:04;2.30;99.90
44695;DHT22;32845;59.422;17.930;2024-02-28T03:40:35;2.30;99.90
44695;DHT22;32845;59.422;17.930;2024-02-28T03:45:06;2.30;99.90
44695;DHT22;32845;59.422;17.930;2024-02-28T03:49:36;2.30;99.90
44695;DHT22;32845;59.422;17.930;2024-02-28T03:54:08;2.20;99.90
44695;DHT22;32845;59.422;17.930;2024-02-28T03:58:40;2.30;99.90
44695;DHT22;32845;59.422;17.930;2024-02-28T04:03:15;2.20;99.90
44695;DHT22;32845;59.422;17.930;2024-02-28T04:07:47;2.20;99.90
44695;DHT22;32845;59.422;17.930;2024-02-28T04:12:17;2.20;99.90
44695;DHT22;32845;59.422;17.930;2024-02-28T04:16:48;2.20;99.90
44695;DHT22;32845;59.422;17.930;2024-02-28T04:21:20;2.20;99.90
44695;DHT22;32845;59.422;17.930;2024-02-28T04:25:51;2.20;99.90
44695;DHT22;32845;59.422;17.930;2024-02-28T04:30:21;2.20;99.90
44695;DHT22;32845;59.422;17.930;2024-02-28T04:34:52;2.20;99.90
44695;DHT22;32845;59.422;17.930;2024-02-28T04:39:22;2.20;99.90
44695;DHT22;32845;59.422;17.930;2024-02-28T04:43:53;2.20;99.90
44695;DHT22;32845;59.422;17.930;2024-02-28T04:48:24;2.20;99.90
44695;DHT22;32845;59.422;17.930;2024-02-28T04:52:54;2.20;99.90
44695;DHT22;32845;59.422;17.930;2024-02-28T04:57:27;2.20;99.90
44695;DHT22;32845;59.422;17.930;2024-02-28T05:01:58;2.10;99.90
44695;DHT22;32845;59.422;17.930;2024-02-28T05:06:29;2.10;99.90
44695;DHT22;32845;59.422;17.930;2024-02-28T05:10:59;2.10;99.90
44695;DHT22;32845;59.422;17.930;2024-02-28T05:15:30;2.20;99.90
44695;DHT22;32845;59.422;17.930;2024-02-28T05:20:00;2.20;99.90
44695;DHT22;32845;59.422;17.930;2024-02-28T05:24:31;2.10;99.90
44695;DHT22;32845;59.422;17.930;2024-02-28T05:29:02;2.10;99.90
44695;DHT22;32845;59.422;17.930;2024-02-28T05:33:34;2.10;99.90
44695;DHT22;32845;59.422;17.930;2024-02-28T05:38:05;2.10;99.90
44695;DHT22;32845;59.422;17.930;2024-02-28T05:42:36;2.10;99.90
44695;DHT22;32845;59.422;17.930;2024-02-28T05:47:06;2.10;99.90
44695;DHT22;32845;59.422;17.930;2024-02-28T05:51:37;2.10;99.90
44695;DHT22;32845;59.422;17.930;2024-02-28T05:56:08;2.10;99.90
44695;DHT22;32845;59.422;17.930;2024-02-28T06:00:45;2.10;99.90
44695;DHT22;32845;59.422;17.930;2024-02-28T06:05:16;2.10;99.90
44695;DHT22;32845;59.422;17.930;2024-02-28T06:09:47;2.10;99.90
44695;DHT22;32845;59.422;17.930;2024-02-28T06:14:17;2.10;99.90
44695;DHT22;32845;59.422;17.930;2024-02-28T06:18:48;2.10;99.90
44695;DHT22;32845;59.422;17.930;2024-02-28T06:23:18;2.20;99.90
44695;DHT22;32845;59.422;17.930;2024-02-28T06:27:49;2.20;99.90
44695;DHT22;32845;59.422;17.930;2024-02-28T06:32:20;2.10;99.90
44695;DHT22;32845;59.422;17.930;2024-02-28T06:36:50;2.20;99.90
44695;DHT22;32845;59.422;17.930;2024-02-28T06:41:21;2.20;99.90
44695;DHT22;32845;59.422;17.930;2024-02-28T06:45:51;2.10;99.90
44695;DHT22;32845;59.422;17.930;2024-02-28T06:50:22;2.20;99.90
44695;DHT22;32845;59.422;17.930;2024-02-28T06:54:53;2.20;99.90
44695;DHT22;32845;59.422;17.930;2024-02-28T06:59:23;2.20;99.90
44695;DHT22;32845;59.422;17.930;2024-02-28T07:03:54;2.20;99.90
44695;DHT22;32845;59.422;17.930;2024-02-28T07:08:24;2.30;99.90
44695;DHT22;32845;59.422;17.930;2024-02-28T07:12:55;2.30;99.90
44695;DHT22;32845;59.422;17.930;2024-02-28T07:17:26;2.40;99.90
44695;DHT22;32845;59.422;17.930;2024-02-28T07:21:56;2.40;99.90
44695;DHT22;32845;59.422;17.930;2024-02-28T07:26:27;2.40;99.90
44695;DHT22;32845;59.422;17.930;2024-02-28T07:30:58;2.40;99.90
44695;DHT22;32845;59.422;17.930;2024-02-28T07:35:28;2.50;99.90
44695;DHT22;32845;59.422;17.930;2024-02-28T07:39:59;2.40;99.90
44695;DHT22;32845;59.422;17.930;2024-02-28T07:44:30;2.50;99.90
44695;DHT22;32845;59.422;17.930;2024-02-28T07:49:01;2.50;99.90
44695;DHT22;32845;59.422;17.930;2024-02-28T07:53:32;2.50;99.90
44695;DHT22;32845;59.422;17.930;2024-02-28T07:58:03;2.60;99.90
44695;DHT22;32845;59.422;17.930;2024-02-28T08:02:33;2.60;99.90
44695;DHT22;32845;59.422;17.930;2024-02-28T08:07:04;2.60;99.90
44695;DHT22;32845;59.422;17.930;2024-02-28T08:11:35;2.70;99.90
44695;DHT22;32845;59.422;17.930;2024-02-28T08:16:06;2.70;99.90
44695;DHT22;32845;59.422;17.930;2024-02-28T08:20:39;2.70;99.90
44695;DHT22;32845;59.422;17.930;2024-02-28T08:25:09;2.70;99.90
44695;DHT22;32845;59.422;17.930;2024-02-28T08:29:42;2.70;99.90
44695;DHT22;32845;59.422;17.930;2024-02-28T08:34:15;2.70;99.90
44695;DHT22;32845;59.422;17.930;2024-02-28T08:38:46;2.70;99.90
44695;DHT22;32845;59.422;17.930;2024-02-28T08:43:16;2.80;99.90
44695;DHT22;32845;59.422;17.930;2024-02-28T08:47:47;2.80;99.90
44695;DHT22;32845;59.422;17.930;2024-02-28T08:52:17;2.80;99.90
44695;DHT22;32845;59.422;17.930;2024-02-28T08:56:48;2.80;99.90
44695;DHT22;32845;59.422;17.930;2024-02-28T09:01:19;2.80;99.90
44695;DHT22;32845;59.422;17.930;2024-02-28T09:05:54;2.80;99.90
44695;DHT22;32845;59.422;17.930;2024-02-28T09:10:25;2.90;99.90
44695;DHT22;32845;59.422;17.930;2024-02-28T09:14:56;2.90;99.90
44695;DHT22;32845;59.422;17.930;2024-02-28T09:19:28;2.90;99.90
44695;DHT22;32845;59.422;17.930;2024-02-28T09:23:58;2.90;99.90
44695;DHT22;32845;59.422;17.930;2024-02-28T09:28:29;2.90;99.90
44695;DHT22;32845;59.422;17.930;2024-02-28T09:32:59;2.90;99.90
44695;DHT22;32845;59.422;17.930;2024-02-28T09:37:30;2.90;99.90
44695;DHT22;32845;59.422;17.930;2024-02-28T09:42:02;2.90;99.90
44695;DHT22;32845;59.422;17.930;2024-02-28T09:46:33;3.00;99.90
44695;DHT22;32845;59.422;17.930;2024-02-28T09:51:08;3.00;99.90
44695;DHT22;32845;59.422;17.930;2024-02-28T09:55:40;3.00;99.90
44695;DHT22;32845;59.422;17.930;2024-02-28T10:00:11;3.00;99.90
44695;DHT22;32845;59.422;17.930;2024-02-28T10:04:42;3.00;99.90
44695;DHT22;32845;59.422;17.930;2024-02-28T10:09:13;3.00;99.90
44695;DHT22;32845;59.422;17.930;2024-02-28T10:13:43;3.10;99.90
44695;DHT22;32845;59.422;17.930;2024-02-28T10:18:14;3.10;99.90
44695;DHT22;32845;59.422;17.930;2024-02-28T10:22:45;3.10;99.90
44695;DHT22;32845;59.422;17.930;2024-02-28T10:27:16;3.10;99.90
44695;DHT22;32845;59.422;17.930;2024-02-28T10:31:47;3.20;99.90
44695;DHT22;32845;59.422;17.930;2024-02-28T10:36:18;3.10;99.90
44695;DHT22;32845;59.422;17.930;2024-02-28T10:40:49;3.10;99.90
44695;DHT22;32845;59.422;17.930;2024-02-28T10:45:22;3.20;99.90
44695;DHT22;32845;59.422;17.930;2024-02-28T10:49:55;3.10;99.90
44695;DHT22;32845;59.422;17.930;2024-02-28T10:54:39;3.20;99.90
44695;DHT22;32845;59.422;17.930;2024-02-28T10:59:12;3.20;99.90
44695;DHT22;32845;59.422;17.930;2024-02-28T11:03:43;3.30;99.90
44695;DHT22;32845;59.422;17.930;2024-02-28T11:08:23;3.50;99.90
44695;DHT22;32845;59.422;17.930;2024-02-28T11:12:55;3.90;99.90
44695;DHT22;32845;59.422;17.930;2024-02-28T11:17:26;4.30;99.90
44695;DHT22;32845;59.422;17.930;2024-02-28T11:21:59;4.60;99.90
44695;DHT22;32845;59.422;17.930;2024-02-28T11:26:30;4.80;99.90
44695;DHT22;32845;59.422;17.930;2024-02-28T11:31:01;4.80;99.90
44695;DHT22;32845;59.422;17.930;2024-02-28T11:35:37;4.60;99.90
44695;DHT22;32845;59.422;17.930;2024-02-28T11:40:09;4.50;99.90
44695;DHT22;32845;59.422;17.930;2024-02-28T11:44:40;4.30;99.90
44695;DHT22;32845;59.422;17.930;2024-02-28T11:49:12;4.10;99.90
44695;DHT22;32845;59.422;17.930;2024-02-28T11:53:48;4.00;99.90
44695;DHT22;32845;59.422;17.930;2024-02-28T11:58:18;4.00;99.90
44695;DHT22;32845;59.422;17.930;2024-02-28T12:02:51;3.90;99.90
44695;DHT22;32845;59.422;17.930;2024-02-28T12:07:21;3.80;99.90
44695;DHT22;32845;59.422;17.930;2024-02-28T12:11:52;3.80;99.90
44695;DHT22;32845;59.422;17.930;2024-02-28T12:16:24;3.80;99.90
44695;DHT22;32845;59.422;17.930;2024-02-28T12:20:55;3.70;99.90
44695;DHT22;32845;59.422;17.930;2024-02-28T12:25:26;3.70;99.90
44695;DHT22;32845;59.422;17.930;2024-02-28T12:29:56;3.80;99.90
44695;DHT22;32845;59.422;17.930;2024-02-28T12:34:32;3.80;99.90
44695;DHT22;32845;59.422;17.930;2024-02-28T12:39:02;3.80;99.90
44695;DHT22;32845;59.422;17.930;2024-02-28T12:43:36;3.80;99.90
44695;DHT22;32845;59.422;17.930;2024-02-28T12:48:07;4.00;99.90
44695;DHT22;32845;59.422;17.930;2024-02-28T12:52:37;4.30;99.90
44695;DHT22;32845;59.422;17.930;2024-02-28T12:57:08;4.40;99.90
44695;DHT22;32845;59.422;17.930;2024-02-28T13:01:39;4.50;99.90
44695;DHT22;32845;59.422;17.930;2024-02-28T13:06:09;4.50;99.90
44695;DHT22;32845;59.422;17.930;2024-02-28T13:10:40;4.50;99.90
44695;DHT22;32845;59.422;17.930;2024-02-28T13:15:11;4.50;99.90
44695;DHT22;32845;59.422;17.930;2024-02-28T13:19:42;4.60;99.90
44695;DHT22;32845;59.422;17.930;2024-02-28T13:24:12;4.70;99.90
44695;DHT22;32845;59.422;17.930;2024-02-28T13:28:45;4.70;99.90
44695;DHT22;32845;59.422;17.930;2024-02-28T13:33:16;4.80;99.90
44695;DHT22;32845;59.422;17.930;2024-02-28T13:37:47;4.70;99.90
44695;DHT22;32845;59.422;17.930;2024-02-28T13:42:18;4.70;99.90
44695;DHT22;32845;59.422;17.930;2024-02-28T13:46:52;4.60;99.90
44695;DHT22;32845;59.422;17.930;2024-02-28T13:51:22;4.70;99.90
44695;DHT22;32845;59.422;17.930;2024-02-28T13:55:53;4.80;99.90
44695;DHT22;32845;59.422;17.930;2024-02-28T14:00:24;4.90;99.90
44695;DHT22;32845;59.422;17.930;2024-02-28T14:04:54;4.90;99.90
44695;DHT22;32845;59.422;17.930;2024-02-28T14:09:25;4.90;99.90
44695;DHT22;32845;59.422;17.930;2024-02-28T14:14:01;4.90;99.90
44695;DHT22;32845;59.422;17.930;2024-02-28T14:18:31;4.80;99.90
44695;DHT22;32845;59.422;17.930;2024-02-28T14:23:02;4.90;99.90
44695;DHT22;32845;59.422;17.930;2024-02-28T14:27:32;4.90;99.90
44695;DHT22;32845;59.422;17.930;2024-02-28T14:32:05;4.80;99.90
44695;DHT22;32845;59.422;17.930;2024-02-28T14:36:37;4.70;99.90
44695;DHT22;32845;59.422;17.930;2024-02-28T14:41:07;4.70;99.90
44695;DHT22;32845;59.422;17.930;2024-02-28T14:45:38;4.60;99.90
44695;DHT22;32845;59.422;17.930;2024-02-28T14:50:10;4.60;99.90
44695;DHT22;32845;59.422;17.930;2024-02-28T14:54:41;4.60;99.90
44695;DHT22;32845;59.422;17.930;2024-02-28T14:59:12;4.60;99.90
44695;DHT22;32845;59.422;17.930;2024-02-28T15:03:42;4.50;99.90
44695;DHT22;32845;59.422;17.930;2024-02-28T15:08:13;4.50;99.90
44695;DHT22;32845;59.422;17.930;2024-02-28T15:12:43;4.40;99.90
44695;DHT22;32845;59.422;17.930;2024-02-28T15:17:15;4.30;99.90
44695;DHT22;32845;59.422;17.930;2024-02-28T15:21:46;4.30;99.90
44695;DHT22;32845;59.422;17.930;2024-02-28T15:26:17;4.30;99.90
44695;DHT22;32845;59.422;17.930;2024-02-28T15:30:47;4.20;99.90
44695;DHT22;32845;59.422;17.930;2024-02-28T15:35:18;4.10;99.90
44695;DHT22;32845;59.422;17.930;2024-02-28T15:39:51;4.10;99.90
44695;DHT22;32845;59.422;17.930;2024-02-28T15:44:23;4.00;99.90
44695;DHT22;32845;59.422;17.930;2024-02-28T15:48:53;3.90;99.90
44695;DHT22;32845;59.422;17.930;2024-02-28T15:53:24;3.90;99.90
44695;DHT22;32845;59.422;17.930;2024-02-28T15:57:55;3.80;99.90
44695;DHT22;32845;59.422;17.930;2024-02-28T16:02:25;3.80;99.90
44695;DHT22;32845;59.422;17.930;2024-02-28T16:06:56;3.80;99.90
44695;DHT22;32845;59.422;17.930;2024-02-28T16:11:27;3.70;99.90
44695;DHT22;32845;59.422;17.930;2024-02-28T16:15:58;3.70;99.90
44695;DHT22;32845;59.422;17.930;2024-02-28T16:20:28;3.60;99.90
44695;DHT22;32845;59.422;17.930;2024-02-28T16:24:59;3.60;99.90
44695;DHT22;32845;59.422;17.930;2024-02-28T16:29:29;3.50;99.90
44695;DHT22;32845;59.422;17.930;2024-02-28T16:34:00;3.50;99.90
44695;DHT22;32845;59.422;17.930;2024-02-28T16:38:31;3.50;99.90
44695;DHT22;32845;59.422;17.930;2024-02-28T16:43:01;3.40;99.90
44695;DHT22;32845;59.422;17.930;2024-02-28T16:47:32;3.40;99.90
44695;DHT22;32845;59.422;17.930;2024-02-28T16:52:03;3.40;99.90
44695;DHT22;32845;59.422;17.930;2024-02-28T16:56:34;3.30;99.90
44695;DHT22;32845;59.422;17.930;2024-02-28T17:01:04;3.20;99.90
44695;DHT22;32845;59.422;17.930;2024-02-28T17:05:35;3.20;99.90
44695;DHT22;32845;59.422;17.930;2024-02-28T17:10:09;3.10;99.90
44695;DHT22;32845;59.422;17.930;2024-02-28T17:14:40;3.20;99.90
44695;DHT22;32845;59.422;17.930;2024-02-28T17:19:11;3.20;99.90
44695;DHT22;32845;59.422;17.930;2024-02-28T17:23:50;3.10;99.90
44695;DHT22;32845;59.422;17.930;2024-02-28T17:28:20;3.10;99.90
44695;DHT22;32845;59.422;17.930;2024-02-28T17:32:51;3.10;99.90
44695;DHT22;32845;59.422;17.930;2024-02-28T17:37:22;3.10;99.90
44695;DHT22;32845;59.422;17.930;2024-02-28T17:41:53;3.10;99.90
44695;DHT22;32845;59.422;17.930;2024-02-28T17:46:23;3.10;99.90
44695;DHT22;32845;59.422;17.930;2024-02-28T17:50:57;3.10;99.90
44695;DHT22;32845;59.422;17.930;2024-02-28T17:55:28;3.10;99.90
44695;DHT22;32845;59.422;17.930;2024-02-28T17:59:59;3.10;99.90
44695;DHT22;32845;59.422;17.930;2024-02-28T18:04:30;3.20;99.90
44695;DHT22;32845;59.422;17.930;2024-02-28T18:09:01;3.10;99.90
44695;DHT22;32845;59.422;17.930;2024-02-28T18:13:31;3.20;99.90
44695;DHT22;32845;59.422;17.930;2024-02-28T18:18:02;3.20;99.90
44695;DHT22;32845;59.422;17.930;2024-02-28T18:22:33;3.30;99.90
44695;DHT22;32845;59.422;17.930;2024-02-28T18:27:05;3.30;99.90
44695;DHT22;32845;59.422;17.930;2024-02-28T18:31:41;3.30;99.90
44695;DHT22;32845;59.422;17.930;2024-02-28T18:36:12;3.30;99.90
44695;DHT22;32845;59.422;17.930;2024-02-28T18:40:43;3.40;99.90
44695;DHT22;32845;59.422;17.930;2024-02-28T18:45:14;3.40;99.90
44695;DHT22;32845;59.422;17.930;2024-02-28T18:49:44;3.50;99.90
44695;DHT22;32845;59.422;17.930;2024-02-28T18:54:15;3.50;99.90
44695;DHT22;32845;59.422;17.930;2024-02-28T18:58:46;3.50;99.90
44695;DHT22;32845;59.422;17.930;2024-02-28T19:03:17;3.50;99.90
44695;DHT22;32845;59.422;17.930;2024-02-28T19:07:47;3.50;99.90
44695;DHT22;32845;59.422;17.930;2024-02-28T19:12:20;3.60;99.90
44695;DHT22;32845;59.422;17.930;2024-02-28T19:16:51;3.60;99.90
44695;DHT22;32845;59.422;17.930;2024-02-28T19:21:22;3.60;99.90
44695;DHT22;32845;59.422;17.930;2024-02-28T19:25:52;3.60;99.90
44695;DHT22;32845;59.422;17.930;2024-02-28T19:30:23;3.70;99.90
44695;DHT22;32845;59.422;17.930;2024-02-28T19:34:53;3.70;99.90
44695;DHT22;32845;59.422;17.930;2024-02-28T19:39:24;3.70;99.90
44695;DHT22;32845;59.422;17.930;2024-02-28T19:43:55;3.70;99.90
44695;DHT22;32845;59.422;17.930;2024-02-28T19:48:26;3.70;99.90
44695;DHT22;32845;59.422;17.930;2024-02-28T19:53:00;3.70;99.90
44695;DHT22;32845;59.422;17.930;2024-02-28T19:57:31;3.70;99.90
44695;DHT22;32845;59.422;17.930;2024-02-28T20:02:02;3.80;99.90
44695;DHT22;32845;59.422;17.930;2024-02-28T20:06:33;3.80;99.90
44695;DHT22;32845;59.422;17.930;2024-02-28T20:11:04;3.80;99.90
44695;DHT22;32845;59.422;17.930;2024-02-28T20:15:35;3.80;99.90
44695;DHT22;32845;59.422;17.930;2024-02-28T20:20:06;3.80;99.90
44695;DHT22;32845;59.422;17.930;2024-02-28T20:24:37;3.80;99.90
44695;DHT22;32845;59.422;17.930;2024-02-28T20:29:08;3.90;99.90
44695;DHT22;32845;59.422;17.930;2024-02-28T20:33:44;3.90;99.90
44695;DHT22;32845;59.422;17.930;2024-02-28T20:38:15;3.90;99.90
44695;DHT22;32845;59.422;17.930;2024-02-28T20:42:46;3.90;99.90
44695;DHT22;32845;59.422;17.930;2024-02-28T20:47:17;4.00;99.90
44695;DHT22;32845;59.422;17.930;2024-02-28T20:51:48;4.00;99.90
44695;DHT22;32845;59.422;17.930;2024-02-28T20:56:19;4.00;99.90
44695;DHT22;32845;59.422;17.930;2024-02-28T21:00:51;4.00;99.90
44695;DHT22;32845;59.422;17.930;2024-02-28T21:05:24;4.00;99.90
44695;DHT22;32845;59.422;17.930;2024-02-28T21:09:55;4.10;99.90
44695;DHT22;32845;59.422;17.930;2024-02-28T21:14:26;4.10;99.90
44695;DHT22;32845;59.422;17.930;2024-02-28T21:18:56;4.10;99.90
44695;DHT22;32845;59.422;17.930;2024-02-28T21:23:27;4.10;99.90
44695;DHT22;32845;59.422;17.930;2024-02-28T21:27:58;4.20;99.90
44695;DHT22;32845;59.422;17.930;2024-02-28T21:32:28;4.20;99.90
44695;DHT22;32845;59.422;17.930;2024-02-28T21:36:59;4.20;99.90
44695;DHT22;32845;59.422;17.930;2024-02-28T21:41:29;4.30;99.90
44695;DHT22;32845;59.422;17.930;2024-02-28T21:46:00;4.30;99.90
44695;DHT22;32845;59.422;17.930;2024-02-28T21:50:31;4.40;99.90
44695;DHT22;32845;59.422;17.930;2024-02-28T21:55:06;4.40;99.90
44695;DHT22;32845;59.422;17.930;2024-02-28T21:59:39;4.40;99.90
44695;DHT22;32845;59.422;17.930;2024-02-28T22:04:10;4.40;99.90
44695;DHT22;32845;59.422;17.930;2024-02-28T22:08:41;4.50;99.90
44695;DHT22;32845;59.422;17.930;2024-02-28T22:13:11;4.50;99.90
44695;DHT22;32845;59.422;17.930;2024-02-28T22:17:42;4.50;99.90
44695;DHT22;32845;59.422;17.930;2024-02-28T22:22:12;4.50;99.90
44695;DHT22;32845;59.422;17.930;2024-02-28T22:26:46;4.50;99.90
44695;DHT22;32845;59.422;17.930;2024-02-28T22:31:17;4.60;99.90
44695;DHT22;32845;59.422;17.930;2024-02-28T22:35:48;4.60;99.90
44695;DHT22;32845;59.422;17.930;2024-02-28T22:40:18;4.60;99.90
44695;DHT22;32845;59.422;17.930;2024-02-28T22:44:49;4.60;99.90
44695;DHT22;32845;59.422;17.930;2024-02-28T22:49:20;4.70;99.90
44695;DHT22;32845;59.422;17.930;2024-02-28T22:53:55;4.70;99.90
44695;DHT22;32845;59.422;17.930;2024-02-28T22:58:26;4.70;99.90
44695;DHT22;32845;59.422;17.930;2024-02-28T23:02:58;4.70;99.90
44695;DHT22;32845;59.422;17.930;2024-02-28T23:07:29;4.70;99.90
44695;DHT22;32845;59.422;17.930;2024-02-28T23:12:00;4.70;99.90
44695;DHT22;32845;59.422;17.930;2024-02-28T23:16:30;4.70;99.90
44695;DHT22;32845;59.422;17.930;2024-02-28T23:21:02;4.80;99.90
44695;DHT22;32845;59.422;17.930;2024-02-28T23:25:32;4.70;99.90
44695;DHT22;32845;59.422;17.930;2024-02-28T23:30:05;4.70;99.90
44695;DHT22;32845;59.422;17.930;2024-02-28T23:34:39;4.70;99.90
44695;DHT22;32845;59.422;17.930;2024-02-28T23:39:10;4.70;99.90
44695;DHT22;32845;59.422;17.930;2024-02-28T23:43:41;4.80;99.90
44695;DHT22;32845;59.422;17.930;2024-02-28T23:48:11;4.80;99.90
44695;DHT22;32845;59.422;17.930;2024-02-28T23:52:42;4.70;99.90
44695;DHT22;32845;59.422;17.930;2024-02-28T23:57:12;4.70;99.90
